createdAt,value
2023-06-02T00:03:31.328Z,61.12
2023-06-02T00:07:34.808Z,61.53
2023-06-02T00:11:40.067Z,61.95
2023-06-02T00:15:44.631Z,62.35
2023-06-02T00:19:48.637Z,62.84
2023-06-02T00:23:52.111Z,64.28
2023-06-02T00:27:55.817Z,64.15
2023-06-02T00:31:59.290Z,63.86
2023-06-02T00:36:03.260Z,63.73
2023-06-02T00:40:08.332Z,63.73
2023-06-02T00:44:11.781Z,63.95
2023-06-02T00:48:15.209Z,64.12
2023-06-02T00:52:20.306Z,64.74
2023-06-02T00:56:24.548Z,65.09
2023-06-02T01:00:28.721Z,65.36
2023-06-02T01:04:33.038Z,65.77
2023-06-02T01:08:40.513Z,65.68
2023-06-02T01:12:46.272Z,65.59
2023-06-02T01:16:53.182Z,65.77
2023-06-02T01:21:02.409Z,65.74
2023-06-02T01:25:21.132Z,65.95
2023-06-02T01:29:24.513Z,66.78
2023-06-02T01:33:57.008Z,67.76
2023-06-02T01:38:02.532Z,68.27
2023-06-02T01:42:08.676Z,68.55
2023-06-02T01:46:13.380Z,68.80
2023-06-02T01:50:16.792Z,70.32
2023-06-02T01:54:20.316Z,70.34
2023-06-02T01:58:24.219Z,70.97
2023-06-02T02:02:27.697Z,71.16
2023-06-02T02:06:35.739Z,72.01
2023-06-02T02:10:39.126Z,72.38
2023-06-02T02:14:42.652Z,72.33
2023-06-02T02:18:47.537Z,72.66
2023-06-02T02:22:51.204Z,73.10
2023-06-02T02:26:55.255Z,72.86
2023-06-02T02:31:01.182Z,72.82
2023-06-02T02:35:09.155Z,73.37
2023-06-02T02:39:13.737Z,73.64
2023-06-02T02:43:19.652Z,73.85
2023-06-02T02:47:23.498Z,74.19
2023-06-02T02:51:27.099Z,74.33
2023-06-02T02:55:34.090Z,75.78
2023-06-02T02:59:37.604Z,76.50
2023-06-02T03:03:42.854Z,76.36
2023-06-02T03:07:48.096Z,75.91
2023-06-02T03:11:51.949Z,76.27
2023-06-02T03:15:56.083Z,76.04
2023-06-02T03:20:00.078Z,76.29
2023-06-02T03:24:04.442Z,76.24
2023-06-02T03:28:14.603Z,76.80
2023-06-02T03:32:18.125Z,76.47
2023-06-02T03:36:23.900Z,76.09
2023-06-02T03:40:27.335Z,75.56
2023-06-02T03:44:31.767Z,75.03
2023-06-02T03:48:37.008Z,74.67
2023-06-02T03:52:41.031Z,74.15
2023-06-02T03:56:45.679Z,73.94
2023-06-02T04:00:49.815Z,73.55
2023-06-02T04:04:53.981Z,72.85
2023-06-02T04:09:00.028Z,72.39
2023-06-02T04:13:04.069Z,71.83
2023-06-02T04:17:09.066Z,71.43
2023-06-02T04:21:12.634Z,70.98
2023-06-02T04:25:17.872Z,70.45
2023-06-02T04:29:21.425Z,70.06
2023-06-02T04:33:25.519Z,69.97
2023-06-02T04:37:29.274Z,69.72
2023-06-02T04:41:45.899Z,69.33
2023-06-02T04:45:52.116Z,68.59
2023-06-02T04:49:58.816Z,68.10
2023-06-02T04:54:02.890Z,67.51
2023-06-02T04:58:07.043Z,67.88
2023-06-02T05:02:12.143Z,67.58
2023-06-02T05:06:16.633Z,67.65
2023-06-02T05:10:21.468Z,68.12
2023-06-02T05:14:25.794Z,68.72
2023-06-02T05:18:30.579Z,69.30
2023-06-02T05:22:35.893Z,69.44
2023-06-02T05:26:40.609Z,69.82
2023-06-02T05:30:45.413Z,70.03
2023-06-02T05:34:49.803Z,70.24
2023-06-02T05:38:54.160Z,70.26
2023-06-02T05:42:59.959Z,70.32
2023-06-02T05:47:05.245Z,70.72
2023-06-02T05:51:09.582Z,71.13
2023-06-02T05:55:13.177Z,71.20
2023-06-02T05:59:17.708Z,71.41
2023-06-02T06:03:21.363Z,71.51
2023-06-02T06:07:26.786Z,71.43
2023-06-02T06:11:31.358Z,70.88
2023-06-02T06:15:34.779Z,70.29
2023-06-02T06:19:39.339Z,69.71
2023-06-02T06:23:43.372Z,69.56
2023-06-02T06:27:49.983Z,69.39
2023-06-02T06:31:54.705Z,69.14
2023-06-02T06:35:58.355Z,69.40
2023-06-02T06:40:02.533Z,69.46
2023-06-02T06:44:07.673Z,69.49
2023-06-02T06:48:11.908Z,69.71
2023-06-02T06:52:16.409Z,69.91
2023-06-02T06:56:20.288Z,70.19
2023-06-02T07:00:24.124Z,70.43
2023-06-02T07:04:32.182Z,69.96
2023-06-02T07:08:42.076Z,70.22
2023-06-02T07:12:46.236Z,69.57
2023-06-02T07:16:55.630Z,68.22
2023-06-02T07:20:59.184Z,67.32
2023-06-02T07:25:04.334Z,67.93
2023-06-02T07:29:08.460Z,68.51
2023-06-02T07:33:13.321Z,68.93
2023-06-02T07:37:17.234Z,69.33
2023-06-02T07:41:22.158Z,68.75
2023-06-02T07:45:27.171Z,68.30
2023-06-02T07:49:30.679Z,68.13
2023-06-02T07:53:34.240Z,67.88
2023-06-02T07:57:37.705Z,68.10
2023-06-02T08:01:41.258Z,68.06
2023-06-02T08:05:46.256Z,68.50
2023-06-02T08:09:50.009Z,69.05
2023-06-02T08:13:53.434Z,69.18
2023-06-02T08:17:56.866Z,69.13
2023-06-02T08:22:02.300Z,69.54
2023-06-02T08:26:05.942Z,69.56
2023-06-02T08:30:11.516Z,70.18
2023-06-02T08:34:15.100Z,70.86
2023-06-02T08:38:21.565Z,71.35
2023-06-02T08:42:27.991Z,71.32
2023-06-02T08:46:32.362Z,71.24
2023-06-02T08:50:41.786Z,71.51
2023-06-02T08:54:48.023Z,71.58
2023-06-02T08:58:54.507Z,72.33
2023-06-02T09:02:58.126Z,72.60
2023-06-02T09:07:24.607Z,72.92
2023-06-02T09:11:29.474Z,73.22
2023-06-02T09:15:37.090Z,73.01
2023-06-02T09:19:51.347Z,73.18
2023-06-02T09:24:12.078Z,73.22
2023-06-02T09:28:18.323Z,73.30
2023-06-02T09:32:22.404Z,73.19
2023-06-02T09:36:31.178Z,73.54
2023-06-02T09:40:36.560Z,73.42
2023-06-02T09:45:02.900Z,73.40
2023-06-02T09:49:07.230Z,73.76
2023-06-02T09:53:15.057Z,73.50
2023-06-02T09:57:18.705Z,72.81
2023-06-02T10:01:22.877Z,72.22
2023-06-02T10:05:31.155Z,71.13
2023-06-02T10:10:12.150Z,70.31
2023-06-02T10:14:23.817Z,69.63
2023-06-02T10:18:55.486Z,68.49
2023-06-02T10:23:16.475Z,68.38
2023-06-02T10:27:35.738Z,68.33
2023-06-02T10:31:41.240Z,67.32
2023-06-02T10:36:00.514Z,67.13
2023-06-02T10:40:05.230Z,66.99
2023-06-02T10:44:28.786Z,67.27
2023-06-02T10:48:43.757Z,67.43
2023-06-02T10:53:15.283Z,66.72
2023-06-02T10:57:52.255Z,66.83
2023-06-02T11:01:55.854Z,67.60
2023-06-02T11:06:29.310Z,68.55
2023-06-02T11:10:59.915Z,69.55
2023-06-02T11:15:06.883Z,70.06
2023-06-02T11:19:10.363Z,70.54
2023-06-02T11:23:14.452Z,71.05
2023-06-02T11:27:36.449Z,71.92
2023-06-02T11:31:49.038Z,72.10
2023-06-02T11:35:59.803Z,72.36
2023-06-02T11:40:07.285Z,72.52
2023-06-02T11:44:12.461Z,73.24
2023-06-02T11:48:16.548Z,73.03
2023-06-02T11:52:21.771Z,73.42
2023-06-02T11:56:28.187Z,73.65
2023-06-02T12:00:31.957Z,74.02
2023-06-02T12:04:44.337Z,74.27
2023-06-02T12:08:47.940Z,74.42
2023-06-02T12:12:51.366Z,74.28
2023-06-02T12:17:06.174Z,74.56
2023-06-02T12:21:28.188Z,74.79
2023-06-02T12:25:33.904Z,74.57
2023-06-02T12:29:37.685Z,74.38
2023-06-02T12:33:42.300Z,74.19
2023-06-02T12:37:45.752Z,73.98
2023-06-02T12:41:49.889Z,73.91
2023-06-02T12:45:53.563Z,73.84
2023-06-02T12:49:58.093Z,73.72
2023-06-02T12:54:03.483Z,73.94
2023-06-02T12:58:07.896Z,73.86
2023-06-02T13:02:14.755Z,74.14
2023-06-02T13:06:18.982Z,74.23
2023-06-02T13:10:25.013Z,74.50
2023-06-02T13:14:28.677Z,74.43
2023-06-02T13:18:32.788Z,74.01
2023-06-02T13:22:36.542Z,73.32
2023-06-02T13:26:40.264Z,72.45
2023-06-02T13:30:43.762Z,71.66
2023-06-02T13:34:58.895Z,70.75
2023-06-02T13:39:02.441Z,70.26
2023-06-02T13:43:06.545Z,69.85
2023-06-02T13:47:10.295Z,69.45
2023-06-02T13:51:14.896Z,69.29
2023-06-02T13:55:18.965Z,69.00
2023-06-02T13:59:22.460Z,68.62
2023-06-02T14:03:27.228Z,68.39
2023-06-02T14:07:32.046Z,68.53
2023-06-02T14:11:40.376Z,68.58
2023-06-02T14:15:46.507Z,68.51
2023-06-02T14:20:27.363Z,68.50
2023-06-02T14:24:35.764Z,68.44
2023-06-02T14:28:48.015Z,68.52
2023-06-02T14:32:51.947Z,68.33
2023-06-02T14:36:57.746Z,68.57
2023-06-02T14:41:01.329Z,68.82
2023-06-02T14:45:16.711Z,68.50
2023-06-02T14:49:20.588Z,68.47
2023-06-02T14:53:24.244Z,68.68
2023-06-02T14:57:30.874Z,68.76
2023-06-02T15:01:34.702Z,68.56
2023-06-02T15:05:40.851Z,68.43
2023-06-02T15:09:46.294Z,68.53
2023-06-02T15:13:54.418Z,68.63
2023-06-02T15:17:58.209Z,68.79
2023-06-02T15:22:11.600Z,68.76
2023-06-02T15:26:21.168Z,69.02
2023-06-02T15:30:32.388Z,68.62
2023-06-02T15:34:36.171Z,68.98
2023-06-02T15:38:41.616Z,68.05
2023-06-02T15:42:51.373Z,66.70
2023-06-02T15:46:56.452Z,65.18
2023-06-02T15:51:00.839Z,63.14
2023-06-02T15:55:05.201Z,62.05
2023-06-02T15:59:14.107Z,62.21
2023-06-02T16:03:19.495Z,61.62
2023-06-02T16:07:23.388Z,60.66
2023-06-02T16:11:37.547Z,60.29
2023-06-02T16:15:44.679Z,59.13
2023-06-02T16:19:49.589Z,59.46
2023-06-02T16:23:54.476Z,58.95
2023-06-02T16:28:13.481Z,58.21
2023-06-02T16:32:17.385Z,57.77
2023-06-02T16:36:34.844Z,57.90
2023-06-02T16:40:56.476Z,57.76
2023-06-02T16:45:28.333Z,57.34
2023-06-02T16:49:40.249Z,57.47
2023-06-02T16:58:41.367Z,57.08
2023-06-02T17:03:33.326Z,57.05
2023-06-02T17:08:16.615Z,57.03
2023-06-02T17:12:35.693Z,56.93
2023-06-02T17:16:48.362Z,56.43
2023-06-02T17:26:08.438Z,55.52
2023-06-02T17:30:24.418Z,55.95
2023-06-02T17:58:06.100Z,57.58
2023-06-02T18:04:53.250Z,57.94
2023-06-02T18:09:14.696Z,58.68
2023-06-02T18:14:00.151Z,58.98
2023-06-02T18:18:32.569Z,59.72
2023-06-02T18:22:37.494Z,60.19
2023-06-02T18:26:41.825Z,60.67
2023-06-02T18:30:46.196Z,61.23
2023-06-02T18:34:50.106Z,61.45
2023-06-02T18:38:56.678Z,61.82
2023-06-02T18:43:02.296Z,61.91
2023-06-02T18:47:39.193Z,62.30
2023-06-02T18:53:42.415Z,63.19
2023-06-02T18:59:10.517Z,63.62
2023-06-02T19:05:32.917Z,63.73
2023-06-02T19:11:04.310Z,63.85
2023-06-02T19:16:06.989Z,63.99
2023-06-02T19:26:21.981Z,65.45
2023-06-02T19:34:45.830Z,65.94
2023-06-02T19:37:02.640Z,65.81
2023-06-02T19:41:57.024Z,65.86
2023-06-02T19:50:14.189Z,66.19
2023-06-02T20:03:50.758Z,67.37
2023-06-02T20:08:39.595Z,67.79
2023-06-02T20:13:17.215Z,67.90
2023-06-02T20:18:05.754Z,68.00
2023-06-02T20:24:38.777Z,68.10
2023-06-02T20:33:32.466Z,68.70
2023-06-02T21:13:32.563Z,68.33
2023-06-02T21:34:46.606Z,67.44
2023-06-02T21:39:32.508Z,67.28
2023-06-02T21:44:03.018Z,67.13
2023-06-02T21:48:53.019Z,66.99
2023-06-02T21:54:07.667Z,67.03
2023-06-02T22:00:19.194Z,66.68
2023-06-02T22:17:35.022Z,66.74
2023-06-02T22:23:18.806Z,66.72
2023-06-02T22:34:57.941Z,67.07
2023-06-02T22:38:40.712Z,66.80
2023-06-02T22:42:08.461Z,67.30
2023-06-02T22:47:12.967Z,67.68
2023-06-02T22:53:00.955Z,67.97
2023-06-02T22:59:33.565Z,67.99
2023-06-02T23:03:32.489Z,68.69
2023-06-02T23:08:26.604Z,68.81
2023-06-02T23:13:28.138Z,69.06
2023-06-02T23:20:51.767Z,69.08
2023-06-02T23:25:00.999Z,69.14
2023-06-02T23:30:17.470Z,69.60
2023-06-02T23:42:20.947Z,69.73
2023-06-02T23:47:50.371Z,69.81
2023-06-02T23:52:09.854Z,69.94
2023-06-02T23:57:08.385Z,69.85
